sensor_id;sensor_type;location;lat;lon;timestamp;temperature;humidity
11748;DHT22;5931;48.832;9.072;2023-07-13T00:01:46;17.60;99.90
11748;DHT22;5931;48.832;9.072;2023-07-13T00:04:16;17.60;99.90
11748;DHT22;5931;48.832;9.072;2023-07-13T00:06:42;17.60;99.90
11748;DHT22;5931;48.832;9.072;2023-07-13T00:09:12;17.60;99.90
11748;DHT22;5931;48.832;9.072;2023-07-13T00:11:39;17.60;99.90
11748;DHT22;5931;48.832;9.072;2023-07-13T00:14:05;17.50;99.90
11748;DHT22;5931;48.832;9.072;2023-07-13T00:16:30;17.50;99.90
11748;DHT22;5931;48.832;9.072;2023-07-13T00:18:56;17.50;99.90
11748;DHT22;5931;48.832;9.072;2023-07-13T00:21:22;17.50;99.90
11748;DHT22;5931;48.832;9.072;2023-07-13T00:23:48;17.40;99.90
11748;DHT22;5931;48.832;9.072;2023-07-13T00:26:14;17.50;99.90
11748;DHT22;5931;48.832;9.072;2023-07-13T00:28:40;17.50;99.90
11748;DHT22;5931;48.832;9.072;2023-07-13T00:31:08;17.60;99.90
11748;DHT22;5931;48.832;9.072;2023-07-13T00:33:34;17.60;99.90
11748;DHT22;5931;48.832;9.072;2023-07-13T00:35:59;17.60;99.90
11748;DHT22;5931;48.832;9.072;2023-07-13T00:38:26;17.60;99.90
11748;DHT22;5931;48.832;9.072;2023-07-13T00:40:51;17.60;99.90
11748;DHT22;5931;48.832;9.072;2023-07-13T00:43:19;17.60;99.90
11748;DHT22;5931;48.832;9.072;2023-07-13T00:48:14;17.60;99.90
11748;DHT22;5931;48.832;9.072;2023-07-13T00:50:41;17.60;99.90
11748;DHT22;5931;48.832;9.072;2023-07-13T00:53:08;17.60;99.90
11748;DHT22;5931;48.832;9.072;2023-07-13T00:55:34;17.70;99.90
11748;DHT22;5931;48.832;9.072;2023-07-13T00:58:01;17.80;99.90
11748;DHT22;5931;48.832;9.072;2023-07-13T01:00:29;17.80;99.90
11748;DHT22;5931;48.832;9.072;2023-07-13T01:02:55;17.70;99.90
11748;DHT22;5931;48.832;9.072;2023-07-13T01:05:25;17.70;99.90
11748;DHT22;5931;48.832;9.072;2023-07-13T01:07:51;17.60;99.90
11748;DHT22;5931;48.832;9.072;2023-07-13T01:10:21;17.60;99.90
11748;DHT22;5931;48.832;9.072;2023-07-13T01:12:48;17.60;99.90
11748;DHT22;5931;48.832;9.072;2023-07-13T01:15:42;17.60;99.90
11748;DHT22;5931;48.832;9.072;2023-07-13T01:18:16;17.50;99.90
11748;DHT22;5931;48.832;9.072;2023-07-13T01:20:53;17.50;99.90
11748;DHT22;5931;48.832;9.072;2023-07-13T01:23:19;17.30;99.90
11748;DHT22;5931;48.832;9.072;2023-07-13T01:25:47;17.20;99.90
11748;DHT22;5931;48.832;9.072;2023-07-13T01:28:13;17.20;99.90
11748;DHT22;5931;48.832;9.072;2023-07-13T01:30:40;17.20;99.90
11748;DHT22;5931;48.832;9.072;2023-07-13T01:33:07;17.00;99.90
11748;DHT22;5931;48.832;9.072;2023-07-13T01:35:33;17.00;99.90
11748;DHT22;5931;48.832;9.072;2023-07-13T01:37:59;16.80;99.90
11748;DHT22;5931;48.832;9.072;2023-07-13T01:40:27;16.70;99.90
11748;DHT22;5931;48.832;9.072;2023-07-13T01:42:52;16.60;99.90
11748;DHT22;5931;48.832;9.072;2023-07-13T01:45:19;16.40;99.90
11748;DHT22;5931;48.832;9.072;2023-07-13T01:47:46;16.30;99.90
11748;DHT22;5931;48.832;9.072;2023-07-13T01:50:12;16.20;99.90
11748;DHT22;5931;48.832;9.072;2023-07-13T01:52:37;16.30;99.90
11748;DHT22;5931;48.832;9.072;2023-07-13T01:55:03;16.20;99.90
11748;DHT22;5931;48.832;9.072;2023-07-13T01:57:29;16.20;99.90
11748;DHT22;5931;48.832;9.072;2023-07-13T01:59:55;16.10;99.90
11748;DHT22;5931;48.832;9.072;2023-07-13T02:02:20;15.90;99.90
11748;DHT22;5931;48.832;9.072;2023-07-13T02:04:46;15.80;99.90
11748;DHT22;5931;48.832;9.072;2023-07-13T02:07:13;15.80;99.90
11748;DHT22;5931;48.832;9.072;2023-07-13T02:09:40;15.70;99.90
11748;DHT22;5931;48.832;9.072;2023-07-13T02:12:06;15.70;99.90
11748;DHT22;5931;48.832;9.072;2023-07-13T02:14:32;15.70;99.90
11748;DHT22;5931;48.832;9.072;2023-07-13T02:16:58;15.60;99.90
11748;DHT22;5931;48.832;9.072;2023-07-13T02:19:24;15.60;99.90
11748;DHT22;5931;48.832;9.072;2023-07-13T02:21:49;15.50;99.90
11748;DHT22;5931;48.832;9.072;2023-07-13T02:24:16;15.40;99.90
11748;DHT22;5931;48.832;9.072;2023-07-13T02:26:44;15.50;99.90
11748;DHT22;5931;48.832;9.072;2023-07-13T02:29:11;15.50;99.90
11748;DHT22;5931;48.832;9.072;2023-07-13T02:31:36;15.50;99.90
11748;DHT22;5931;48.832;9.072;2023-07-13T02:34:03;15.60;99.90
11748;DHT22;5931;48.832;9.072;2023-07-13T02:36:30;15.50;99.90
11748;DHT22;5931;48.832;9.072;2023-07-13T02:38:55;15.40;99.90
11748;DHT22;5931;48.832;9.072;2023-07-13T02:41:21;15.70;99.90
11748;DHT22;5931;48.832;9.072;2023-07-13T02:43:48;15.70;99.90
11748;DHT22;5931;48.832;9.072;2023-07-13T02:46:14;15.70;99.90
11748;DHT22;5931;48.832;9.072;2023-07-13T02:48:40;15.70;99.90
11748;DHT22;5931;48.832;9.072;2023-07-13T02:51:06;15.90;99.90
11748;DHT22;5931;48.832;9.072;2023-07-13T02:53:33;16.00;99.90
11748;DHT22;5931;48.832;9.072;2023-07-13T02:55:58;15.90;99.90
11748;DHT22;5931;48.832;9.072;2023-07-13T02:58:25;16.00;99.90
11748;DHT22;5931;48.832;9.072;2023-07-13T03:00:51;15.80;99.90
11748;DHT22;5931;48.832;9.072;2023-07-13T03:03:17;15.80;99.90
11748;DHT22;5931;48.832;9.072;2023-07-13T03:05:44;15.70;99.90
11748;DHT22;5931;48.832;9.072;2023-07-13T03:08:12;15.60;99.90
11748;DHT22;5931;48.832;9.072;2023-07-13T03:10:39;15.50;99.90
11748;DHT22;5931;48.832;9.072;2023-07-13T03:13:09;15.50;99.90
11748;DHT22;5931;48.832;9.072;2023-07-13T03:15:35;15.50;99.90
11748;DHT22;5931;48.832;9.072;2023-07-13T03:18:02;15.40;99.90
11748;DHT22;5931;48.832;9.072;2023-07-13T03:20:27;15.30;99.90
11748;DHT22;5931;48.832;9.072;2023-07-13T03:22:53;15.20;99.90
11748;DHT22;5931;48.832;9.072;2023-07-13T03:25:19;15.10;99.90
11748;DHT22;5931;48.832;9.072;2023-07-13T03:27:44;15.00;99.90
11748;DHT22;5931;48.832;9.072;2023-07-13T03:30:11;15.00;99.90
11748;DHT22;5931;48.832;9.072;2023-07-13T03:32:36;14.90;99.90
11748;DHT22;5931;48.832;9.072;2023-07-13T03:35:02;14.90;99.90
11748;DHT22;5931;48.832;9.072;2023-07-13T03:37:30;14.90;99.90
11748;DHT22;5931;48.832;9.072;2023-07-13T03:39:56;14.90;99.90
11748;DHT22;5931;48.832;9.072;2023-07-13T03:42:22;14.80;99.90
11748;DHT22;5931;48.832;9.072;2023-07-13T03:44:48;14.70;99.90
11748;DHT22;5931;48.832;9.072;2023-07-13T03:47:18;14.70;99.90
11748;DHT22;5931;48.832;9.072;2023-07-13T03:49:45;14.60;99.90
11748;DHT22;5931;48.832;9.072;2023-07-13T03:52:11;14.60;99.90
11748;DHT22;5931;48.832;9.072;2023-07-13T03:54:37;14.70;99.90
11748;DHT22;5931;48.832;9.072;2023-07-13T03:57:03;14.70;99.90
11748;DHT22;5931;48.832;9.072;2023-07-13T03:59:31;14.90;99.90
11748;DHT22;5931;48.832;9.072;2023-07-13T04:01:57;15.10;99.90
11748;DHT22;5931;48.832;9.072;2023-07-13T04:04:22;15.20;99.90
11748;DHT22;5931;48.832;9.072;2023-07-13T04:06:48;15.30;99.90
11748;DHT22;5931;48.832;9.072;2023-07-13T04:09:13;15.30;99.90
11748;DHT22;5931;48.832;9.072;2023-07-13T04:11:39;15.30;99.90
11748;DHT22;5931;48.832;9.072;2023-07-13T04:14:05;15.30;99.90
11748;DHT22;5931;48.832;9.072;2023-07-13T04:16:33;15.30;99.90
11748;DHT22;5931;48.832;9.072;2023-07-13T04:18:59;15.20;99.90
11748;DHT22;5931;48.832;9.072;2023-07-13T04:21:26;15.20;99.90
11748;DHT22;5931;48.832;9.072;2023-07-13T04:23:53;15.20;99.90
11748;DHT22;5931;48.832;9.072;2023-07-13T04:26:19;15.10;99.90
11748;DHT22;5931;48.832;9.072;2023-07-13T04:28:49;15.00;99.90
11748;DHT22;5931;48.832;9.072;2023-07-13T04:31:15;15.00;99.90
11748;DHT22;5931;48.832;9.072;2023-07-13T04:33:40;15.00;99.90
11748;DHT22;5931;48.832;9.072;2023-07-13T04:36:06;14.90;99.90
11748;DHT22;5931;48.832;9.072;2023-07-13T04:38:33;14.90;99.90
11748;DHT22;5931;48.832;9.072;2023-07-13T04:41:01;15.00;99.90
11748;DHT22;5931;48.832;9.072;2023-07-13T04:43:27;15.00;99.90
11748;DHT22;5931;48.832;9.072;2023-07-13T04:45:53;15.00;99.90
11748;DHT22;5931;48.832;9.072;2023-07-13T04:48:19;15.10;99.90
11748;DHT22;5931;48.832;9.072;2023-07-13T04:50:46;15.10;99.90
11748;DHT22;5931;48.832;9.072;2023-07-13T04:53:12;15.10;99.90
11748;DHT22;5931;48.832;9.072;2023-07-13T04:55:38;15.10;99.90
11748;DHT22;5931;48.832;9.072;2023-07-13T04:58:04;15.20;99.90
11748;DHT22;5931;48.832;9.072;2023-07-13T05:00:30;15.20;99.90
11748;DHT22;5931;48.832;9.072;2023-07-13T05:02:57;15.30;99.90
11748;DHT22;5931;48.832;9.072;2023-07-13T05:05:24;15.40;99.90
11748;DHT22;5931;48.832;9.072;2023-07-13T05:07:51;15.50;99.90
11748;DHT22;5931;48.832;9.072;2023-07-13T05:10:17;15.80;99.90
11748;DHT22;5931;48.832;9.072;2023-07-13T05:12:43;16.00;99.90
11748;DHT22;5931;48.832;9.072;2023-07-13T05:15:10;16.20;99.90
11748;DHT22;5931;48.832;9.072;2023-07-13T05:17:36;16.40;99.90
11748;DHT22;5931;48.832;9.072;2023-07-13T05:20:01;16.60;99.90
11748;DHT22;5931;48.832;9.072;2023-07-13T05:22:27;16.70;99.90
11748;DHT22;5931;48.832;9.072;2023-07-13T05:24:53;16.90;99.90
11748;DHT22;5931;48.832;9.072;2023-07-13T05:27:18;17.00;99.90
11748;DHT22;5931;48.832;9.072;2023-07-13T05:29:44;17.20;99.90
11748;DHT22;5931;48.832;9.072;2023-07-13T05:32:10;17.30;99.90
11748;DHT22;5931;48.832;9.072;2023-07-13T05:34:35;17.40;99.90
11748;DHT22;5931;48.832;9.072;2023-07-13T05:37:01;17.50;99.90
11748;DHT22;5931;48.832;9.072;2023-07-13T05:39:27;17.60;99.90
11748;DHT22;5931;48.832;9.072;2023-07-13T05:41:53;17.70;99.90
11748;DHT22;5931;48.832;9.072;2023-07-13T05:44:18;17.70;99.90
11748;DHT22;5931;48.832;9.072;2023-07-13T05:46:45;17.80;99.90
11748;DHT22;5931;48.832;9.072;2023-07-13T05:49:10;17.90;99.90
11748;DHT22;5931;48.832;9.072;2023-07-13T05:51:36;17.90;99.90
11748;DHT22;5931;48.832;9.072;2023-07-13T05:54:02;17.90;99.90
11748;DHT22;5931;48.832;9.072;2023-07-13T05:56:27;18.00;99.90
11748;DHT22;5931;48.832;9.072;2023-07-13T05:58:53;18.10;99.90
11748;DHT22;5931;48.832;9.072;2023-07-13T06:01:19;18.30;99.90
11748;DHT22;5931;48.832;9.072;2023-07-13T06:03:46;18.40;99.90
11748;DHT22;5931;48.832;9.072;2023-07-13T06:06:12;18.60;99.90
11748;DHT22;5931;48.832;9.072;2023-07-13T06:08:38;18.90;99.90
11748;DHT22;5931;48.832;9.072;2023-07-13T06:11:07;19.20;99.90
11748;DHT22;5931;48.832;9.072;2023-07-13T06:13:33;19.30;99.90
11748;DHT22;5931;48.832;9.072;2023-07-13T06:16:00;19.40;99.90
11748;DHT22;5931;48.832;9.072;2023-07-13T06:18:26;19.30;99.90
11748;DHT22;5931;48.832;9.072;2023-07-13T06:20:51;19.30;99.90
11748;DHT22;5931;48.832;9.072;2023-07-13T06:23:17;19.40;99.90
11748;DHT22;5931;48.832;9.072;2023-07-13T06:25:43;19.40;99.90
11748;DHT22;5931;48.832;9.072;2023-07-13T06:28:09;19.40;99.90
11748;DHT22;5931;48.832;9.072;2023-07-13T06:30:34;19.20;99.90
11748;DHT22;5931;48.832;9.072;2023-07-13T06:33:00;19.20;99.90
11748;DHT22;5931;48.832;9.072;2023-07-13T06:35:25;19.30;99.90
11748;DHT22;5931;48.832;9.072;2023-07-13T06:37:51;19.40;99.90
11748;DHT22;5931;48.832;9.072;2023-07-13T06:40:17;19.60;99.90
11748;DHT22;5931;48.832;9.072;2023-07-13T06:42:42;19.80;99.90
11748;DHT22;5931;48.832;9.072;2023-07-13T06:45:08;19.90;99.90
11748;DHT22;5931;48.832;9.072;2023-07-13T06:47:34;20.10;99.90
11748;DHT22;5931;48.832;9.072;2023-07-13T06:50:00;20.10;99.90
11748;DHT22;5931;48.832;9.072;2023-07-13T06:52:26;20.30;99.90
11748;DHT22;5931;48.832;9.072;2023-07-13T06:54:52;20.30;99.90
11748;DHT22;5931;48.832;9.072;2023-07-13T06:57:17;20.40;99.90
11748;DHT22;5931;48.832;9.072;2023-07-13T06:59:43;20.40;99.90
11748;DHT22;5931;48.832;9.072;2023-07-13T07:02:10;20.20;99.90
11748;DHT22;5931;48.832;9.072;2023-07-13T07:04:36;20.00;99.90
11748;DHT22;5931;48.832;9.072;2023-07-13T07:07:02;20.10;99.90
11748;DHT22;5931;48.832;9.072;2023-07-13T07:09:27;20.10;99.90
11748;DHT22;5931;48.832;9.072;2023-07-13T07:11:55;20.40;99.90
11748;DHT22;5931;48.832;9.072;2023-07-13T07:14:21;20.50;99.90
11748;DHT22;5931;48.832;9.072;2023-07-13T07:16:46;20.40;99.90
11748;DHT22;5931;48.832;9.072;2023-07-13T07:19:12;20.40;99.90
11748;DHT22;5931;48.832;9.072;2023-07-13T07:21:38;20.50;99.90
11748;DHT22;5931;48.832;9.072;2023-07-13T07:24:04;20.50;99.90
11748;DHT22;5931;48.832;9.072;2023-07-13T07:26:30;20.70;99.90
11748;DHT22;5931;48.832;9.072;2023-07-13T07:28:56;20.80;99.90
11748;DHT22;5931;48.832;9.072;2023-07-13T07:31:22;20.70;99.90
11748;DHT22;5931;48.832;9.072;2023-07-13T07:33:47;20.80;99.90
11748;DHT22;5931;48.832;9.072;2023-07-13T07:36:15;20.80;99.90
11748;DHT22;5931;48.832;9.072;2023-07-13T07:38:42;21.00;99.90
11748;DHT22;5931;48.832;9.072;2023-07-13T07:41:07;21.00;99.90
11748;DHT22;5931;48.832;9.072;2023-07-13T07:43:33;21.20;99.90
11748;DHT22;5931;48.832;9.072;2023-07-13T07:45:59;21.30;99.90
11748;DHT22;5931;48.832;9.072;2023-07-13T07:48:25;21.20;99.90
11748;DHT22;5931;48.832;9.072;2023-07-13T07:50:50;21.30;99.90
11748;DHT22;5931;48.832;9.072;2023-07-13T07:53:16;21.20;99.90
11748;DHT22;5931;48.832;9.072;2023-07-13T07:55:42;21.30;99.90
11748;DHT22;5931;48.832;9.072;2023-07-13T07:58:07;21.20;99.90
11748;DHT22;5931;48.832;9.072;2023-07-13T08:00:33;21.30;99.90
11748;DHT22;5931;48.832;9.072;2023-07-13T08:03:01;21.30;99.90
11748;DHT22;5931;48.832;9.072;2023-07-13T08:05:26;21.30;99.90
11748;DHT22;5931;48.832;9.072;2023-07-13T08:07:52;21.50;99.90
11748;DHT22;5931;48.832;9.072;2023-07-13T08:10:18;21.50;99.90
11748;DHT22;5931;48.832;9.072;2023-07-13T08:12:44;21.60;99.90
11748;DHT22;5931;48.832;9.072;2023-07-13T08:15:12;21.80;99.90
11748;DHT22;5931;48.832;9.072;2023-07-13T08:17:38;21.80;99.90
11748;DHT22;5931;48.832;9.072;2023-07-13T08:20:04;21.90;99.90
11748;DHT22;5931;48.832;9.072;2023-07-13T08:22:30;21.60;99.90
11748;DHT22;5931;48.832;9.072;2023-07-13T08:24:55;21.80;99.90
11748;DHT22;5931;48.832;9.072;2023-07-13T08:27:22;21.90;99.90
11748;DHT22;5931;48.832;9.072;2023-07-13T08:29:49;22.10;99.90
11748;DHT22;5931;48.832;9.072;2023-07-13T08:32:15;22.20;99.90
11748;DHT22;5931;48.832;9.072;2023-07-13T08:34:41;22.20;99.90
11748;DHT22;5931;48.832;9.072;2023-07-13T08:37:07;22.10;99.90
11748;DHT22;5931;48.832;9.072;2023-07-13T08:39:33;22.30;99.90
11748;DHT22;5931;48.832;9.072;2023-07-13T08:42:02;22.30;99.90
11748;DHT22;5931;48.832;9.072;2023-07-13T08:47:16;22.40;99.90
11748;DHT22;5931;48.832;9.072;2023-07-13T08:49:43;22.50;99.90
11748;DHT22;5931;48.832;9.072;2023-07-13T08:52:21;22.50;99.90
11748;DHT22;5931;48.832;9.072;2023-07-13T08:54:52;22.60;99.90
11748;DHT22;5931;48.832;9.072;2023-07-13T08:57:27;22.90;99.90
11748;DHT22;5931;48.832;9.072;2023-07-13T08:59:55;23.00;99.90
11748;DHT22;5931;48.832;9.072;2023-07-13T09:02:27;22.90;99.90
11748;DHT22;5931;48.832;9.072;2023-07-13T09:05:01;22.90;99.90
11748;DHT22;5931;48.832;9.072;2023-07-13T09:10:23;23.50;99.90
11748;DHT22;5931;48.832;9.072;2023-07-13T09:13:13;23.10;99.90
11748;DHT22;5931;48.832;9.072;2023-07-13T09:15:43;23.20;99.90
11748;DHT22;5931;48.832;9.072;2023-07-13T09:18:20;23.40;99.90
11748;DHT22;5931;48.832;9.072;2023-07-13T09:21:00;23.10;99.90
11748;DHT22;5931;48.832;9.072;2023-07-13T09:23:29;23.10;99.90
11748;DHT22;5931;48.832;9.072;2023-07-13T09:26:12;23.00;99.90
11748;DHT22;5931;48.832;9.072;2023-07-13T09:28:42;23.00;99.90
11748;DHT22;5931;48.832;9.072;2023-07-13T09:31:30;23.00;99.90
11748;DHT22;5931;48.832;9.072;2023-07-13T09:33:59;22.70;99.90
11748;DHT22;5931;48.832;9.072;2023-07-13T09:36:31;22.60;99.90
11748;DHT22;5931;48.832;9.072;2023-07-13T09:39:04;22.70;99.90
11748;DHT22;5931;48.832;9.072;2023-07-13T09:46:36;23.10;99.90
11748;DHT22;5931;48.832;9.072;2023-07-13T09:49:02;23.70;99.90
11748;DHT22;5931;48.832;9.072;2023-07-13T09:51:28;24.00;99.90
11748;DHT22;5931;48.832;9.072;2023-07-13T09:53:53;24.10;99.50
11748;DHT22;5931;48.832;9.072;2023-07-13T09:56:21;24.10;99.70
11748;DHT22;5931;48.832;9.072;2023-07-13T09:58:47;24.10;98.70
11748;DHT22;5931;48.832;9.072;2023-07-13T10:01:13;24.00;98.70
11748;DHT22;5931;48.832;9.072;2023-07-13T10:03:40;24.20;99.20
11748;DHT22;5931;48.832;9.072;2023-07-13T10:06:18;24.30;98.10
11748;DHT22;5931;48.832;9.072;2023-07-13T10:08:45;24.50;97.50
11748;DHT22;5931;48.832;9.072;2023-07-13T10:11:21;24.20;97.40
11748;DHT22;5931;48.832;9.072;2023-07-13T10:16:21;24.50;96.80
11748;DHT22;5931;48.832;9.072;2023-07-13T10:18:57;24.50;97.80
11748;DHT22;5931;48.832;9.072;2023-07-13T10:21:27;25.00;97.20
11748;DHT22;5931;48.832;9.072;2023-07-13T10:24:17;25.10;97.20
11748;DHT22;5931;48.832;9.072;2023-07-13T10:32:11;24.70;96.80
11748;DHT22;5931;48.832;9.072;2023-07-13T10:34:38;24.60;97.00
11748;DHT22;5931;48.832;9.072;2023-07-13T10:37:06;24.70;97.50
11748;DHT22;5931;48.832;9.072;2023-07-13T10:39:35;24.90;96.70
11748;DHT22;5931;48.832;9.072;2023-07-13T10:42:05;24.90;96.30
11748;DHT22;5931;48.832;9.072;2023-07-13T10:44:35;24.70;96.70
11748;DHT22;5931;48.832;9.072;2023-07-13T10:47:19;24.90;96.10
11748;DHT22;5931;48.832;9.072;2023-07-13T10:49:45;25.10;95.70
11748;DHT22;5931;48.832;9.072;2023-07-13T10:52:49;25.40;95.50
11748;DHT22;5931;48.832;9.072;2023-07-13T10:55:33;25.50;95.40
11748;DHT22;5931;48.832;9.072;2023-07-13T10:58:18;26.10;94.80
11748;DHT22;5931;48.832;9.072;2023-07-13T11:01:16;25.40;93.70
11748;DHT22;5931;48.832;9.072;2023-07-13T11:03:55;25.40;94.50
11748;DHT22;5931;48.832;9.072;2023-07-13T11:06:33;25.30;94.00
11748;DHT22;5931;48.832;9.072;2023-07-13T11:09:37;25.40;94.70
11748;DHT22;5931;48.832;9.072;2023-07-13T11:15:28;25.00;93.90
11748;DHT22;5931;48.832;9.072;2023-07-13T11:17:55;24.90;95.10
11748;DHT22;5931;48.832;9.072;2023-07-13T11:20:33;24.80;94.70
11748;DHT22;5931;48.832;9.072;2023-07-13T11:23:21;24.70;94.10
11748;DHT22;5931;48.832;9.072;2023-07-13T11:25:51;24.50;94.50
11748;DHT22;5931;48.832;9.072;2023-07-13T11:28:22;24.20;95.30
11748;DHT22;5931;48.832;9.072;2023-07-13T11:33:24;24.70;95.50
11748;DHT22;5931;48.832;9.072;2023-07-13T11:36:15;24.90;94.70
11748;DHT22;5931;48.832;9.072;2023-07-13T11:38:49;24.90;93.40
11748;DHT22;5931;48.832;9.072;2023-07-13T11:41:32;24.90;94.10
11748;DHT22;5931;48.832;9.072;2023-07-13T11:44:16;25.70;95.30
11748;DHT22;5931;48.832;9.072;2023-07-13T11:46:51;26.60;94.00
11748;DHT22;5931;48.832;9.072;2023-07-13T11:49:22;27.20;91.30
11748;DHT22;5931;48.832;9.072;2023-07-13T11:51:49;27.40;91.20
11748;DHT22;5931;48.832;9.072;2023-07-13T11:54:23;26.90;90.80
11748;DHT22;5931;48.832;9.072;2023-07-13T11:56:49;26.70;91.80
11748;DHT22;5931;48.832;9.072;2023-07-13T11:59:15;26.30;90.90
11748;DHT22;5931;48.832;9.072;2023-07-13T12:01:48;26.20;91.00
11748;DHT22;5931;48.832;9.072;2023-07-13T12:04:34;26.00;91.90
11748;DHT22;5931;48.832;9.072;2023-07-13T12:07:14;25.80;91.20
11748;DHT22;5931;48.832;9.072;2023-07-13T12:09:40;25.20;90.80
11748;DHT22;5931;48.832;9.072;2023-07-13T12:12:17;25.10;90.70
11748;DHT22;5931;48.832;9.072;2023-07-13T12:14:43;25.20;91.30
11748;DHT22;5931;48.832;9.072;2023-07-13T12:17:20;25.20;90.70
11748;DHT22;5931;48.832;9.072;2023-07-13T12:19:50;25.70;91.80
11748;DHT22;5931;48.832;9.072;2023-07-13T12:22:18;26.00;92.30
11748;DHT22;5931;48.832;9.072;2023-07-13T12:24:45;26.40;91.10
11748;DHT22;5931;48.832;9.072;2023-07-13T12:27:26;26.30;88.70
11748;DHT22;5931;48.832;9.072;2023-07-13T12:29:59;25.70;88.70
11748;DHT22;5931;48.832;9.072;2023-07-13T12:32:25;25.30;89.90
11748;DHT22;5931;48.832;9.072;2023-07-13T12:34:56;25.50;90.70
11748;DHT22;5931;48.832;9.072;2023-07-13T12:37:22;25.80;89.80
11748;DHT22;5931;48.832;9.072;2023-07-13T12:39:49;26.00;89.70
11748;DHT22;5931;48.832;9.072;2023-07-13T12:47:26;26.50;88.30
11748;DHT22;5931;48.832;9.072;2023-07-13T12:49:58;26.40;89.10
11748;DHT22;5931;48.832;9.072;2023-07-13T12:52:32;26.30;89.30
11748;DHT22;5931;48.832;9.072;2023-07-13T12:55:27;26.00;89.50
11748;DHT22;5931;48.832;9.072;2023-07-13T12:57:59;25.80;88.00
11748;DHT22;5931;48.832;9.072;2023-07-13T13:00:31;25.80;89.20
11748;DHT22;5931;48.832;9.072;2023-07-13T13:06:25;25.80;88.70
11748;DHT22;5931;48.832;9.072;2023-07-13T13:08:54;25.80;88.60
11748;DHT22;5931;48.832;9.072;2023-07-13T13:11:22;25.90;89.00
11748;DHT22;5931;48.832;9.072;2023-07-13T13:13:49;25.90;88.60
11748;DHT22;5931;48.832;9.072;2023-07-13T13:18:41;25.50;87.30
11748;DHT22;5931;48.832;9.072;2023-07-13T13:21:09;25.70;88.30
11748;DHT22;5931;48.832;9.072;2023-07-13T13:23:35;25.90;89.00
11748;DHT22;5931;48.832;9.072;2023-07-13T13:26:01;26.20;86.10
11748;DHT22;5931;48.832;9.072;2023-07-13T13:28:28;26.50;87.60
11748;DHT22;5931;48.832;9.072;2023-07-13T13:30:54;26.80;87.10
11748;DHT22;5931;48.832;9.072;2023-07-13T13:33:21;26.90;84.10
11748;DHT22;5931;48.832;9.072;2023-07-13T13:35:47;26.60;83.60
11748;DHT22;5931;48.832;9.072;2023-07-13T13:38:15;26.70;84.60
11748;DHT22;5931;48.832;9.072;2023-07-13T13:40:44;26.80;84.60
11748;DHT22;5931;48.832;9.072;2023-07-13T13:43:23;26.60;85.20
11748;DHT22;5931;48.832;9.072;2023-07-13T13:45:53;27.00;87.60
11748;DHT22;5931;48.832;9.072;2023-07-13T13:48:25;26.90;84.30
11748;DHT22;5931;48.832;9.072;2023-07-13T13:50:56;26.80;84.00
11748;DHT22;5931;48.832;9.072;2023-07-13T13:53:22;27.10;85.30
11748;DHT22;5931;48.832;9.072;2023-07-13T13:55:52;27.60;85.50
11748;DHT22;5931;48.832;9.072;2023-07-13T13:58:21;28.10;83.80
11748;DHT22;5931;48.832;9.072;2023-07-13T14:00:47;28.80;82.90
11748;DHT22;5931;48.832;9.072;2023-07-13T14:03:18;29.40;80.60
11748;DHT22;5931;48.832;9.072;2023-07-13T14:05:46;29.70;77.10
11748;DHT22;5931;48.832;9.072;2023-07-13T14:08:17;29.70;76.90
11748;DHT22;5931;48.832;9.072;2023-07-13T14:10:48;30.50;75.30
11748;DHT22;5931;48.832;9.072;2023-07-13T14:13:25;31.20;73.40
11748;DHT22;5931;48.832;9.072;2023-07-13T14:15:52;30.80;74.00
11748;DHT22;5931;48.832;9.072;2023-07-13T14:18:18;31.60;71.90
11748;DHT22;5931;48.832;9.072;2023-07-13T14:20:45;31.40;71.70
11748;DHT22;5931;48.832;9.072;2023-07-13T14:23:12;30.80;68.80
11748;DHT22;5931;48.832;9.072;2023-07-13T14:25:38;30.60;69.10
11748;DHT22;5931;48.832;9.072;2023-07-13T14:28:22;30.50;70.90
11748;DHT22;5931;48.832;9.072;2023-07-13T14:30:49;30.10;71.40
11748;DHT22;5931;48.832;9.072;2023-07-13T14:33:15;31.10;71.30
11748;DHT22;5931;48.832;9.072;2023-07-13T14:35:40;31.10;70.80
11748;DHT22;5931;48.832;9.072;2023-07-13T14:38:10;30.80;71.20
11748;DHT22;5931;48.832;9.072;2023-07-13T14:40:37;31.60;69.40
11748;DHT22;5931;48.832;9.072;2023-07-13T14:43:03;31.10;68.10
11748;DHT22;5931;48.832;9.072;2023-07-13T14:45:30;30.70;69.80
11748;DHT22;5931;48.832;9.072;2023-07-13T14:47:57;31.00;70.80
11748;DHT22;5931;48.832;9.072;2023-07-13T14:50:31;31.40;69.60
11748;DHT22;5931;48.832;9.072;2023-07-13T14:52:58;31.00;68.50
11748;DHT22;5931;48.832;9.072;2023-07-13T14:55:24;30.40;69.00
11748;DHT22;5931;48.832;9.072;2023-07-13T14:57:52;30.20;69.10
11748;DHT22;5931;48.832;9.072;2023-07-13T15:00:21;30.50;70.00
11748;DHT22;5931;48.832;9.072;2023-07-13T15:02:51;29.70;69.80
11748;DHT22;5931;48.832;9.072;2023-07-13T15:05:22;29.20;72.30
11748;DHT22;5931;48.832;9.072;2023-07-13T15:07:50;28.80;71.10
11748;DHT22;5931;48.832;9.072;2023-07-13T15:10:19;28.00;74.60
11748;DHT22;5931;48.832;9.072;2023-07-13T15:12:45;27.60;74.50
11748;DHT22;5931;48.832;9.072;2023-07-13T15:15:11;27.00;75.10
11748;DHT22;5931;48.832;9.072;2023-07-13T15:17:46;26.70;76.80
11748;DHT22;5931;48.832;9.072;2023-07-13T15:20:28;26.70;78.40
11748;DHT22;5931;48.832;9.072;2023-07-13T15:22:54;26.90;78.20
11748;DHT22;5931;48.832;9.072;2023-07-13T15:25:24;26.30;77.10
11748;DHT22;5931;48.832;9.072;2023-07-13T15:27:51;26.10;77.90
11748;DHT22;5931;48.832;9.072;2023-07-13T15:30:17;25.90;78.30
11748;DHT22;5931;48.832;9.072;2023-07-13T15:32:43;26.10;79.30
11748;DHT22;5931;48.832;9.072;2023-07-13T15:35:17;26.20;80.10
11748;DHT22;5931;48.832;9.072;2023-07-13T15:37:44;25.90;79.00
11748;DHT22;5931;48.832;9.072;2023-07-13T15:40:11;25.90;79.00
11748;DHT22;5931;48.832;9.072;2023-07-13T15:42:39;25.70;78.30
11748;DHT22;5931;48.832;9.072;2023-07-13T15:45:15;25.50;79.30
11748;DHT22;5931;48.832;9.072;2023-07-13T15:47:41;25.60;79.90
11748;DHT22;5931;48.832;9.072;2023-07-13T15:50:19;25.40;81.10
11748;DHT22;5931;48.832;9.072;2023-07-13T15:52:52;25.40;80.60
11748;DHT22;5931;48.832;9.072;2023-07-13T15:55:18;25.40;80.40
11748;DHT22;5931;48.832;9.072;2023-07-13T15:57:51;25.50;79.20
11748;DHT22;5931;48.832;9.072;2023-07-13T16:00:22;25.50;79.50
11748;DHT22;5931;48.832;9.072;2023-07-13T16:02:48;25.60;80.30
11748;DHT22;5931;48.832;9.072;2023-07-13T16:05:15;25.40;79.50
11748;DHT22;5931;48.832;9.072;2023-07-13T16:07:43;25.40;80.30
11748;DHT22;5931;48.832;9.072;2023-07-13T16:10:25;25.50;79.00
11748;DHT22;5931;48.832;9.072;2023-07-13T16:12:53;25.50;79.60
11748;DHT22;5931;48.832;9.072;2023-07-13T16:15:21;25.40;80.50
11748;DHT22;5931;48.832;9.072;2023-07-13T16:17:47;25.30;80.20
11748;DHT22;5931;48.832;9.072;2023-07-13T16:20:14;25.40;81.10
11748;DHT22;5931;48.832;9.072;2023-07-13T16:25:19;25.20;80.90
11748;DHT22;5931;48.832;9.072;2023-07-13T16:27:46;25.10;81.70
11748;DHT22;5931;48.832;9.072;2023-07-13T16:30:21;25.10;80.90
11748;DHT22;5931;48.832;9.072;2023-07-13T16:32:51;25.10;81.00
11748;DHT22;5931;48.832;9.072;2023-07-13T16:35:18;25.30;81.10